ホーチミン の空港の天気 - METARとTAF

タンソンニャット国際空港 (ホーチミン) ( VVTS / SGN ) - ベトナム ホーチミン市
飛行場実況気象(Metar)
観測時間06/24 16:30 ICT (06/24 09:30 UTC)
風向・風速南 4m/s
視程10km以上
天気現象
全天の4割程度の雲 雲底高度 520m
少しの雲 雲底高度 610m
全天の4割程度の雲 雲底高度 1520m
気温26℃
湿度94%
気圧1007hPa
METARVVTS 240930Z 19008KT 160V220 9999 SCT017 FEW020CB SCT050 26/25 Q1007 NOSIG RMK CB/NE
過去の天気等 Google飛行場航空写真 Wunderground天気予報

過去48時間のMETAR

飛行場予報(TAF)
発表時間: 6/24 12:00 ICT (6/24 05:00 UTC)
予報対象時間: 24日13時 ICT ~ 25日19時 ICT
風向・風速南西 5m/s
視程10km以上
全天の4割程度の雲 雲底高度 460m
全天の4割程度の雲 雲底高度 1220m
24日13時 ICT ~ 24日18時 ICT に一時的に
風向・風速南西 8m/s 瞬間風速 14m/s
視程2000m
天気現象強い雷雨
全天の8割程度の雲 雲底高度 400m
全天の4割程度の積乱雲 雲底高度 460m
25日12時 ICT ~ 25日17時 ICT に一時的に
風向・風速南西 8m/s 瞬間風速 14m/s
視程3000m
天気現象雷雨
全天の8割程度の雲 雲底高度 400m
全天の4割程度の積乱雲 雲底高度 460m
TAF VVTS 240500Z 2406/2512 23010KT 9999 SCT015 SCT040
TEMPO 2406/2411 23015G28KT 2000 +TSRA BKN013 SCT015CB
TEMPO 2505/2510 23015G28KT 3000 TSRA BKN013 SCT015CB